Weather observations for the past three days for
Pago Pago, AS, Samoa
| Date | Time (sst) | Wind (kph) | Vis. (km) | Weather | Sky Cond. | Temperature (ºC) | Relative Humidity | Wind Chill (°C) | Heat Index (°C) | Pressure | Precipitation (cm) | ||||||
|---|---|---|---|---|---|---|---|---|---|---|---|---|---|---|---|---|---|
| Air | Dwpt | 6 hour | altimeter (cm) | sea level (mb) | 1 hr | 3 hr | 6 hr | ||||||||||
| Max. | Min. | ||||||||||||||||
| 06 | 16:50 | Vrbl 7 | 19.31 | Partly Cloudy | SCT020TCU | 30.5 | 25.2 | 73% | 37 | 75.59 | 1007.8 | ||||||
| 06 | 15:50 | Vrbl 9 | 19.31 | Partly Cloudy | SCT017TCU | 30.1 | 25.3 | 76% | 37 | 75.57 | 1007.6 | ||||||
| 06 | 14:50 | Vrbl 11 | 19.31 | Partly Cloudy | SCT020 SCT040 | 30.4 | 24.7 | 72% | 36 | 75.57 | 1007.6 | ||||||
| 06 | 13:50 | NW 15 | 19.31 | Mostly Cloudy | BKN018TCU | 31.2 | 26.2 | 75% | 40 | 75.62 | 1008.3 | ||||||
| 06 | 12:50 | Vrbl 9 | 19.31 | Mostly Cloudy | SCT018 BKN040 | 30.2 | 24.6 | 31.6 | 28.3 | 72% | 36 | 75.67 | 1008.8 | 0.1 | |||
| 06 | 10:50 | Vrbl 6 | 17.70 | Light Showers Rain | BKN017TCU BKN038 | 28.3 | 24.4 | 79% | 33 | 75.77 | 1010.2 | ||||||
| 06 | 09:50 | Vrbl 11 | 19.31 | Mostly Cloudy | SCT019 BKN210 | 31.3 | 26.2 | 74% | 40 | 75.79 | 1010.5 | 0.08 | |||||
| 06 | 08:50 | Vrbl 9 | 19.31 | Light Showers Rain | SCT016 SCT040 BKN100 | 30.2 | 26.3 | 80% | 38 | 75.79 | 1010.5 | ||||||
| 06 | 07:50 | Vrbl 9 | 16.09 | Light Showers Rain | SCT015TCU BKN040 | 29.8 | 25.8 | 79% | 37 | 75.77 | 1010.2 | ||||||
| 06 | 06:55 | N 13 | 19.31 | Mostly Cloudy | FEW017 SCT040 BKN100 | 28.8 | 25.1 | 28.8 | 28.3 | 80% | 34 | 75.72 | 1009.5 | ||||
| 06 | 05:50 | Vrbl 11 | 16.09 | Partly Cloudy | FEW021 SCT040 SCT100 | 28.4 | 25 | 82% | 33 | 75.64 | 1008.6 | ||||||
| 06 | 04:50 | NW 15 | 16.09 | Mostly Cloudy | SCT018 SCT040 BKN100 | 28.3 | 25 | 82% | 33 | 75.64 | 1008.5 | ||||||
| 06 | 03:55 | NW 13 G 22 | 16.09 | Mostly Cloudy | SCT018 SCT040 BKN100 | 28.4 | 24.8 | 81% | 33 | 75.62 | 1008.3 | ||||||
| 06 | 02:50 | NW 17 G 28 | 16.09 | Mostly Cloudy | SCT018 BKN040 BKN100 | 28.5 | 24.9 | 81% | 34 | 75.62 | 1008.3 | ||||||
| 06 | 01:50 | NW 19 G 31 | 16.09 | Mostly Cloudy | SCT018 BKN040 BKN100 | 28.7 | 25 | 80% | 34 | 75.64 | 1008.6 | ||||||
| 06 | 00:50 | Vrbl 9 | 16.09 | Mostly Cloudy | SCT018 BKN040 BKN100 | 28.6 | 25.3 | 28.9 | 28.2 | 82% | 34 | 75.67 | 1009.0 | ||||
| 05 | 23:50 | Vrbl 7 | 16.09 | Mostly Cloudy | SCT018 SCT040 BKN100 BKN200 | 28.8 | 25.4 | 82% | 35 | 75.69 | 1009.3 | ||||||
| 05 | 22:50 | Vrbl 7 | 16.09 | Mostly Cloudy | SCT018 BKN040 | 28.6 | 24.8 | 80% | 34 | 75.69 | 1009.1 | ||||||
| 05 | 21:50 | NW 15 G 30 | 16.09 | Mostly Cloudy | BKN017 BKN040 | 28.9 | 24.7 | 78% | 34 | 75.67 | 1008.8 | ||||||
| 05 | 20:50 | Vrbl 7 | 16.09 | Thunderstorm | BKN016CB BKN040 | 28.8 | 25 | 80% | 34 | 75.67 | 1008.8 | ||||||
| 05 | 19:50 | NW 13 G 37 | 16.09 | Mostly Cloudy | SCT017 BKN040 | 28.2 | 24.6 | 81% | 33 | 75.64 | 1008.6 | ||||||
| 05 | 18:50 | Vrbl 11 | 16.09 | Partly Cloudy | SCT018 SCT220 | 28.8 | 25.1 | 31.3 | 27.7 | 80% | 34 | 75.57 | 1007.6 | 0.64 | |||
| 05 | 17:50 | Vrbl 6 G 24 | 19.31 | Partly Cloudy | SCT017 SCT220 | 28.5 | 24.8 | 80% | 33 | 75.51 | 1006.9 | ||||||
| 05 | 16:50 | Vrbl 7 | 19.31 | Mostly Cloudy | SCT015TCU BKN040 | 27.7 | 24.5 | 83% | 32 | 75.51 | 1006.9 | ||||||
| 05 | 15:50 | N 19 G 30 | 19.31 | Mostly Cloudy | BKN018TCU BKN040 | 30.2 | 25 | 74% | 37 | 75.49 | 1006.4 | ||||||
| 05 | 14:51 | N 17 | 19.31 | Mostly Cloudy | BKN017TCU BKN040 | 29.9 | 25.5 | 77% | 37 | 75.51 | 1006.9 | ||||||
| 05 | 13:55 | N 13 | 19.31 | Mostly Cloudy | SCT017TCU BKN040 | 31 | 25.4 | 72% | 38 | 75.54 | 1007.3 | ||||||
| 05 | 12:50 | N 13 G 22 | 19.31 | Mostly Cloudy | SCT017TCU BKN040 | 31.3 | 25.5 | 31.3 | 26.7 | 71% | 39 | 75.59 | 1007.8 | ||||
| 05 | 11:55 | N 15 | 19.31 | Mostly Cloudy | SCT018 BKN100 | 31 | 25.3 | 72% | 38 | 75.64 | 1008.5 | ||||||
| 05 | 10:50 | N 17 | 19.31 | Mostly Cloudy | SCT018 BKN100 BKN200 | 30.1 | 24.9 | 74% | 36 | 75.69 | 1009.3 | ||||||
| 05 | 09:54 | Vrbl 9 | 19.31 | Mostly Cloudy | SCT018TCU BKN100 BKN200 | 29.2 | 24.9 | 78% | 35 | 75.72 | 1009.7 | ||||||
| 05 | 08:55 | N 15 | 19.31 | Mostly Cloudy | SCT018 BKN100 | 29 | 24.6 | 77% | 34 | 75.69 | 1009.3 | ||||||
| 05 | 07:50 | Vrbl 7 | 19.31 | Partly Cloudy | FEW020 SCT100 | 28.7 | 25.1 | 81% | 34 | 75.64 | 1008.5 | ||||||
| 05 | 06:50 | Vrbl 2 | 19.31 | Mostly Cloudy | FEW015TCU BKN100 | 26.7 | 24.7 | 26.7 | 24.1 | 89% | 30 | 75.57 | 1007.6 | 0.2 | |||
| 05 | 05:50 | Vrbl 2 | 16.09 | Mostly Cloudy | SCT018TCU SCT040 BKN100 BKN200 | 26.3 | 24.6 | 90% | 29 | 75.54 | 1007.3 | ||||||
| 05 | 04:50 | Vrbl 6 | 16.09 | Mostly Cloudy | SCT018 BKN040 BKN100 | 26 | 24.6 | 92% | 28 | 75.57 | 1007.6 | ||||||
| 05 | 03:50 | Vrbl 6 | 16.09 | Mostly Cloudy | SCT018 BKN040 BKN100 | 25.8 | 24.4 | 92% | 28 | 75.57 | 1007.5 | ||||||
| 05 | 02:50 | Vrbl 4 | 16.09 | Mostly Cloudy | SCT018TCU BKN040 BKN100 | 26 | 23.7 | 87% | 28 | 75.54 | 1007.1 | ||||||
| 05 | 01:50 | Vrbl 4 | 16.09 | Mostly Cloudy | SCT018TCU BKN040 BKN100 | 26.1 | 23.7 | 87% | 28 | 75.54 | 1007.1 | ||||||
| 05 | 00:50 | Vrbl 4 | 16.09 | Mostly Cloudy | SCT018TCU BKN040 BKN100 | 24.1 | 23.2 | 25.2 | 24.1 | 95% | 23 | 75.57 | 1007.6 | 0.41 | |||
| 04 | 23:50 | E 13 | 12.87 | Light Showers Rain | BKN016TCU BKN035 OVC100 | 25.1 | 24 | 94% | 26 | 75.69 | 1009.1 | ||||||
| 04 | 22:50 | NE 15 G 35 | 8.05 | Light Showers Rain | BKN016TCU OVC035 | 24.5 | 23.5 | 94% | 24 | 75.74 | 1009.8 | ||||||
| 04 | 21:50 | Vrbl 2 | 16.09 | Overcast | SCT017 OVC038 | 25.2 | 24.4 | 95% | 26 | 75.72 | 1009.5 | 0.15 | |||||
| 04 | 20:50 | Calm | 16.09 | Overcast | SCT016 OVC035 | 25 | 24.3 | 96% | 25 | 75.72 | 1009.7 | ||||||
| 04 | 19:50 | Vrbl 4 | 12.87 | Light Showers Rain | BKN015TCU OVC035 | 25.1 | 24.3 | 95% | 26 | 75.64 | 1008.6 | ||||||
| 04 | 18:50 | Vrbl 4 | 11.27 | Light Showers Rain | FEW010 BKN015TCU OVC035 | 25.2 | 24.1 | 28.1 | 24.6 | 94% | 26 | 75.64 | 1008.5 | 4.32 | |||
| 04 | 17:50 | Vrbl 6 | 11.27 | Light Showers Rain | FEW008 BKN016TCU OVC035 | 25 | 24.1 | 95% | 26 | 75.64 | 1008.5 | ||||||
| 04 | 16:50 | Vrbl 6 | 8.05 | Light Showers Rain | FEW010 BKN017TCU OVC035 | 24.6 | 23.7 | 95% | 25 | 75.62 | 1008.1 | ||||||
| 04 | 15:50 | Vrbl 6 | 4.83 | Light Showers Rain | BKN011TCU OVC035 | 25.1 | 24.2 | 95% | 26 | 75.57 | 1007.6 | 3.15 | |||||
| 04 | 14:50 | SE 13 | 1.61 | Showers Rain | BKN012TCU OVC030 | 25.7 | 24.5 | 93% | 27 | 75.62 | 1008.1 | ||||||
| 04 | 13:50 | SE 15 | 16.09 | Overcast | BKN014TCU OVC040 | 27.9 | 25.1 | 85% | 33 | 75.62 | 1008.3 | ||||||
| 04 | 12:50 | Vrbl 9 | 16.09 | Mostly Cloudy | BKN016TCU BKN040 | 28.1 | 25.7 | 29.2 | 25.6 | 87% | 33 | 75.64 | 1008.5 | 0.89 | |||
| 04 | 11:50 | SE 13 | 16.09 | Overcast | BKN OVC100 | 28.1 | 25.7 | 87% | 33 | 75.67 | 1009.0 | ||||||
| 04 | 10:50 | SE 13 | 19.31 | Mostly Cloudy | SCT018TCU BKN040 BKN100 | 29.1 | 25 | 79% | 35 | 75.74 | 1009.8 | ||||||
| 04 | 09:50 | Vrbl 7 | 19.31 | Mostly Cloudy | SCT018TCU SCT040 BKN100 | 29.2 | 25.4 | 80% | 35 | 75.77 | 1010.3 | ||||||
| 04 | 08:50 | Calm | 19.31 | Mostly Cloudy | SCT018TCU BKN040 BKN100 | 28 | 25.6 | 87% | 33 | 75.77 | 1010.3 | ||||||
| 04 | 07:50 | Vrbl 6 | 16.09 | Overcast | SCT018TCU BKN040 BKN100 OVC200 | 26.4 | 25.2 | 93% | 29 | 75.77 | 1010.2 | ||||||
| 04 | 06:50 | Vrbl 2 | 16.09 | Overcast | FEW021 SCT040 OVC100 | 25.6 | 24.5 | 26.1 | 25.5 | 94% | 27 | 75.72 | 1009.5 | ||||
| 04 | 05:50 | Vrbl 6 | 16.09 | Overcast | FEW016 SCT040 OVC100 | 25.5 | 24.4 | 94% | 27 | 75.67 | 1008.8 | ||||||
| 04 | 04:50 | Vrbl 7 | 16.09 | Overcast | FEW019 SCT040 OVC100 | 25.5 | 24.4 | 94% | 27 | 75.64 | 1008.5 | ||||||
| 04 | 03:50 | Vrbl 4 | 16.09 | Overcast | SCT019 BKN040 OVC100 | 25.5 | 24.2 | 93% | 27 | 75.64 | 1008.6 | ||||||
| 04 | 02:50 | Vrbl 4 | 16.09 | Mostly Cloudy | SCT017TCU SCT040 BKN100 | 25.5 | 24.4 | 94% | 27 | 75.69 | 1009.3 | ||||||
| 04 | 01:50 | Vrbl 4 | 16.09 | Mostly Cloudy | SCT017TCU BKN100 | 26 | 25 | 94% | 28 | 75.74 | 1009.8 | ||||||
| 04 | 00:50 | Vrbl 6 | 16.09 | Mostly Cloudy | FEW023 SCT040 BKN100 | 26 | 24.7 | 26.2 | 25 | 93% | 28 | 75.74 | 1010.0 | ||||
| 03 | 23:50 | Vrbl 4 | 16.09 | Mostly Cloudy | FEW023 BKN040 BKN100 | 26.1 | 24.5 | 91% | 28 | 75.79 | 1010.5 | ||||||
| 03 | 22:50 | Vrbl 6 | 16.09 | Overcast | FEW023 BKN040 OVC100 | 25.8 | 24.2 | 91% | 28 | 75.79 | 1010.5 | ||||||
| 03 | 21:50 | Vrbl 4 | 16.09 | Overcast | FEW023 BKN038 OVC100 | 26 | 24.3 | 90% | 28 | 75.79 | 1010.5 | ||||||
| 03 | 20:50 | Vrbl 6 | 16.09 | Mostly Cloudy | FEW023 BKN038 BKN100 | 26.1 | 24.3 | 90% | 28 | 75.77 | 1010.3 | ||||||
| 03 | 19:50 | Vrbl 6 | 16.09 | Overcast | FEW023 BKN038 OVC100 | 25.2 | 23.6 | 27.5 | 25.4 | 91% | 26 | 75.69 | 1009.1 | ||||
| 03 | 18:50 | Vrbl 6 | 16.09 | Overcast | FEW023 BKN038 OVC100 | 25.2 | 23.6 | 27.5 | 25.4 | 91% | 26 | 75.69 | 1009.1 | 0.2 | |||
| 03 | 17:50 | Vrbl 4 | 19.31 | Overcast | FEW022 BKN038 OVC100 | 26.3 | 24.6 | 90% | 29 | 75.69 | 1009.1 | ||||||
| Date | Time (sst) | Wind (kph) | Vis. (km) | Weather | Sky Cond. | Air | Dwpt | Max. | Min. | Relative Humidity | Wind Chill (°C) | Heat Index (°C) | altimeter (cm) | sea level (mb) | 1 hr | 3 hr | 6 hr |
| 6 hour | |||||||||||||||||
| Temperature (ºC) | Pressure | Precipitation (cm) | |||||||||||||||